Terminal Aerodrome Forecast
Issued by NWS

Home | Current Version | Previous Version | Text Only | Print | Product List | Glossary On
Versions: 1 2 3 4 5 6 7 8 9 10 11 12 13 14 15 16 17 18 19 20 21 22 23 24 25 26 27 28 29
203
FTUS41 KILN 261129
TAFLUK
TAF
KLUK 261129Z 2612/2712 00000KT P6SM SCT080
     FM261400 28011KT P6SM SCT050
     FM262300 26004KT P6SM SCT060 BKN120
     FM270500 30004KT P6SM OVC070
     FM270900 32005KT P6SM FEW050=

USA.gov is the U.S. government's official web portal to all federal, state and local government web resources and services.